Aduana, Mexico

8:08 PM EDT on April 22, 2018 (GMT -0400)
Cancun International | | Change Station

Elev 23 ft 21.03 °N, 86.87 °W | Updated 24 minutes ago

Partly Cloudy
Partly Cloudy
81 °F
Feels Like 85 °F
N
10
Wind Variable Wind from ESE

Today
High -- | Low -- °F
--% Chance of Precip.
Yesterday
High -- | Low -- °F
Precip. -- in
Pressure 29.94 in
Visibility 7.0 miles
Clouds Few 1800 ft
Heat Index 85 °F
Dew Point 72 °F
Humidity 74%
Rainfall 0.00 in
Snow Depth Not available.
7:23 AM 8:08 PM
Waxing Crescent, 51% visible
METAR MMUN 222344Z 11009KT 7SM FEW018 27/22 A2994 RMK SLP139 57003 961 8/500
Pressure 29.94 in
Visibility 7.0 miles
Clouds Few 1800 ft
Heat Index 85 °F
Dew Point 72 °F
Humidity 74%
Rainfall 0.00 in
Snow Depth Not available.
7:23 AM 8:08 PM
Waxing Crescent, 51% visible
METAR MMUN 222344Z 11009KT 7SM FEW018 27/22 A2994 RMK SLP139 57003 961 8/500

Get Severe Weather Alerts

Thanks for signing up!

Be on the lookout for a verification email in your inbox.

You'll start receiving the daily forecast at 6 AM.

×

10-Day Weather Forecast

No radar image for this location.
×

Almanac

Astronomy

Apr. 22, 2018 Rise Set
Actual Time
Civil Twilight
Nautical Twilight
Astronomical Twilight
Moon
Length of Visible Light
Length of Day
Tomorrow will be .
, % of the Moon is Illuminated

Today's Extremes

Country Highs Country Lows

Community

WunderPhotos

Category 6

Welcome to Category 6. This is the collective home for Weather Underground's featured writeups by Dr. Jeff Masters (right), Bob Henson (left), Chris Burt, and other regular contributors.

Nearby

Air Quality

  Air Quality AQ Index Pollutant
Not available.

Snow Depth

Station Depth Elevation

Earthquake Activity

City Distance Mag. Time & Date
Minimum magnitude displayed is 2.5.

Coastal Water Temperatures

Place Temperature

Stations

Nearby Weather Stations

Station Location Temp. Windchill Dew Point Humidity Wind Precip. Elev Updated Type